Home   Weather   Germany   Ludwigsfelde   Past weeks
Flag for Germany

Past Weather in Ludwigsfelde, Brandenburg, Germany — Yesterday and Last 2 Weeks

Currently: 72 °F. Clear. (Weather station: Berlin-Schoenefeld, Germany). See more current weather

Past Weather in Ludwigsfelde — Graph

°F

Ludwigsfelde Temperature Yesterday

Maximum temperature yesterday: 86 °F (at 3:20 pm)
Minimum temperature yesterday: 57 °F (at 5:20 am)
Average temperature yesterday: 74 °F

High & Low Weather Summary for the Past Weeks

 TemperatureHumidityPressure
High86 °F (Jul 13, 4:20 pm)100% (Jul 10, 1:50 am)30.18 "Hg (Jul 10, 1:50 am)
Low54 °F (Jul 21, 4:20 am)35% (Jul 11, 3:20 pm)29.74 "Hg (Jul 13, 4:50 pm)
Average70 °F69%29.99 "Hg
* Reported Jul 10 1:20 am — Jul 25 1:20 am, Ludwigsfelde. Weather by CustomWeather, © 2021

Note: Actual official high and low records may vary slightly from our data, if they occured in-between our weather recording intervals... More about our weather records

Ludwigsfelde Weather History for the Previous 24 Hours

Scroll right to see more
 ConditionsComfort  
Time TempWeatherWind HumidityBarometerVisibility
1:20 am
Sun, Jul 25
73 °FClear.8 mph53%29.83 "Hg10 mi
12:50 am75 °FClear.8 mph50%29.86 "Hg10 mi
12:20 am75 °FClear.10 mph50%29.86 "Hg10 mi
11:50 pm
Sat, Jul 24
75 °FClear.10 mph50%29.83 "Hg10 mi
11:20 pm75 °FClear.10 mph50%29.83 "Hg10 mi
10:50 pm75 °FClear.10 mph50%29.83 "Hg10 mi
10:20 pm77 °FClear.10 mph51%29.83 "Hg10 mi
9:50 pm77 °FClear.10 mph51%29.83 "Hg10 mi
9:20 pm77 °FClear.8 mph51%29.83 "Hg10 mi
8:50 pm79 °FSunny.9 mph48%29.83 "Hg10 mi
8:20 pm81 °FSunny.10 mph45%29.83 "Hg10 mi
7:50 pm81 °FSunny.9 mph45%29.80 "Hg10 mi
7:20 pm82 °FSunny.13 mph42%29.83 "Hg10 mi
6:50 pm82 °FPassing clouds.12 mph40%29.83 "HgN/A
6:20 pm84 °FPassing clouds.8 mph35%29.83 "HgN/A
5:50 pm86 °FPassing clouds.7 mph35%29.83 "HgN/A
5:20 pm86 °FPassing clouds.10 mph35%29.86 "HgN/A
4:50 pm86 °FSunny.3 mph40%29.86 "Hg10 mi
4:20 pm86 °FPassing clouds.8 mph38%29.86 "HgN/A
3:50 pm84 °FPassing clouds.8 mph37%29.86 "HgN/A
3:20 pm86 °FSunny.7 mph35%29.86 "Hg10 mi
2:50 pm84 °FPassing clouds.9 mph37%29.86 "HgN/A
2:20 pm84 °FPassing clouds.10 mph40%29.86 "HgN/A
1:50 pm82 °FSunny.13 mph40%29.89 "Hg10 mi
1:20 pm82 °FPassing clouds.13 mph40%29.89 "HgN/A
12:50 pm82 °FSunny.10 mph40%29.89 "Hg10 mi
12:20 pm82 °FPassing clouds.13 mph40%29.89 "HgN/A
11:50 am81 °FPassing clouds.14 mph42%29.89 "HgN/A
11:20 am79 °FPassing clouds.12 mph45%29.89 "HgN/A
10:50 am79 °FPassing clouds.12 mph51%29.92 "HgN/A
10:20 am77 °FPassing clouds.12 mph51%29.92 "HgN/A
9:50 am75 °FPassing clouds.9 mph54%29.92 "HgN/A
8:50 am72 °FPassing clouds.7 mph61%29.92 "HgN/A
8:20 am70 °FPassing clouds.6 mph64%29.95 "HgN/A
7:50 am68 °FPassing clouds.6 mph69%29.95 "HgN/A
7:20 am64 °FSunny.6 mph78%29.95 "Hg10 mi
6:50 am63 °FSunny.6 mph83%29.92 "Hg10 mi
6:20 am61 °FSunny.6 mph83%29.92 "Hg10 mi
5:50 am59 °FSunny.5 mph88%29.92 "Hg10 mi
5:20 am57 °FSunny.6 mph94%29.95 "Hg10 mi
4:50 am59 °FClear.5 mph88%29.95 "Hg10 mi
4:20 am59 °FClear.6 mph88%29.95 "Hg10 mi
3:50 am59 °FClear.6 mph88%29.95 "Hg10 mi
3:20 am59 °FClear.6 mph88%29.95 "Hg10 mi
2:50 am59 °FClear.5 mph88%29.95 "Hg10 mi
Weather by CustomWeather, © 2021

See weather overview